sensor_id;sensor_type;location;lat;lon;timestamp;temperature;humidity
10278;DHT22;5184;51.376;7.148;2023-05-17T00:00:47;8.60;99.90
10278;DHT22;5184;51.376;7.148;2023-05-17T00:03:14;8.30;99.90
10278;DHT22;5184;51.376;7.148;2023-05-17T00:05:43;8.30;99.90
10278;DHT22;5184;51.376;7.148;2023-05-17T00:08:09;8.30;99.90
10278;DHT22;5184;51.376;7.148;2023-05-17T00:10:37;8.20;1.00
10278;DHT22;5184;51.376;7.148;2023-05-17T00:13:04;8.20;49.50
10278;DHT22;5184;51.376;7.148;2023-05-17T00:15:31;8.10;99.90
10278;DHT22;5184;51.376;7.148;2023-05-17T00:18:00;8.10;1.00
10278;DHT22;5184;51.376;7.148;2023-05-17T00:20:27;8.00;1.00
10278;DHT22;5184;51.376;7.148;2023-05-17T00:22:54;8.00;1.00
10278;DHT22;5184;51.376;7.148;2023-05-17T00:25:22;8.00;99.90
10278;DHT22;5184;51.376;7.148;2023-05-17T00:27:48;8.00;99.90
10278;DHT22;5184;51.376;7.148;2023-05-17T00:30:16;7.90;1.00
10278;DHT22;5184;51.376;7.148;2023-05-17T00:32:43;7.90;99.90
10278;DHT22;5184;51.376;7.148;2023-05-17T00:35:10;7.90;99.90
10278;DHT22;5184;51.376;7.148;2023-05-17T00:37:38;7.90;1.00
10278;DHT22;5184;51.376;7.148;2023-05-17T00:40:05;7.90;99.90
10278;DHT22;5184;51.376;7.148;2023-05-17T00:42:32;7.90;99.90
10278;DHT22;5184;51.376;7.148;2023-05-17T00:44:59;7.90;99.90
10278;DHT22;5184;51.376;7.148;2023-05-17T00:47:25;7.90;1.00
10278;DHT22;5184;51.376;7.148;2023-05-17T00:49:52;7.90;99.90
10278;DHT22;5184;51.376;7.148;2023-05-17T00:52:19;7.80;5.20
10278;DHT22;5184;51.376;7.148;2023-05-17T00:54:46;7.80;1.00
10278;DHT22;5184;51.376;7.148;2023-05-17T00:57:12;7.80;1.00
10278;DHT22;5184;51.376;7.148;2023-05-17T00:59:40;7.80;99.90
10278;DHT22;5184;51.376;7.148;2023-05-17T01:02:07;7.70;99.90
10278;DHT22;5184;51.376;7.148;2023-05-17T01:04:35;7.70;99.90
10278;DHT22;5184;51.376;7.148;2023-05-17T01:07:02;7.70;99.90
10278;DHT22;5184;51.376;7.148;2023-05-17T01:09:29;7.70;99.90
10278;DHT22;5184;51.376;7.148;2023-05-17T01:12:24;7.60;1.00
10278;DHT22;5184;51.376;7.148;2023-05-17T01:15:30;7.60;1.00
10278;DHT22;5184;51.376;7.148;2023-05-17T01:17:39;7.60;19.90
10278;DHT22;5184;51.376;7.148;2023-05-17T01:20:20;7.50;99.90
10278;DHT22;5184;51.376;7.148;2023-05-17T01:23:00;7.50;99.90
10278;DHT22;5184;51.376;7.148;2023-05-17T01:25:26;7.50;1.00
10278;DHT22;5184;51.376;7.148;2023-05-17T01:27:48;7.50;99.90
10278;DHT22;5184;51.376;7.148;2023-05-17T01:30:16;7.50;1.00
10278;DHT22;5184;51.376;7.148;2023-05-17T01:32:43;7.50;3.00
10278;DHT22;5184;51.376;7.148;2023-05-17T01:35:10;7.50;1.00
10278;DHT22;5184;51.376;7.148;2023-05-17T01:37:38;7.50;1.00
10278;DHT22;5184;51.376;7.148;2023-05-17T01:40:06;7.50;1.00
10278;DHT22;5184;51.376;7.148;2023-05-17T01:42:32;7.40;1.00
10278;DHT22;5184;51.376;7.148;2023-05-17T01:45:03;7.40;1.00
10278;DHT22;5184;51.376;7.148;2023-05-17T01:47:35;7.40;99.90
10278;DHT22;5184;51.376;7.148;2023-05-17T01:49:59;7.30;99.90
10278;DHT22;5184;51.376;7.148;2023-05-17T01:52:28;7.20;99.90
10278;DHT22;5184;51.376;7.148;2023-05-17T01:57:28;7.20;1.00
10278;DHT22;5184;51.376;7.148;2023-05-17T01:59:54;7.10;1.00
10278;DHT22;5184;51.376;7.148;2023-05-17T02:02:21;7.00;1.00
10278;DHT22;5184;51.376;7.148;2023-05-17T02:04:47;7.00;1.00
10278;DHT22;5184;51.376;7.148;2023-05-17T02:07:14;6.90;1.00
10278;DHT22;5184;51.376;7.148;2023-05-17T02:09:41;6.80;29.40
10278;DHT22;5184;51.376;7.148;2023-05-17T02:12:07;6.70;1.00
10278;DHT22;5184;51.376;7.148;2023-05-17T02:14:34;6.70;1.00
10278;DHT22;5184;51.376;7.148;2023-05-17T02:17:00;6.70;63.70
10278;DHT22;5184;51.376;7.148;2023-05-17T02:19:27;6.70;99.90
10278;DHT22;5184;51.376;7.148;2023-05-17T02:21:54;6.80;99.90
10278;DHT22;5184;51.376;7.148;2023-05-17T02:24:20;6.80;99.90
10278;DHT22;5184;51.376;7.148;2023-05-17T02:26:47;6.70;1.00
10278;DHT22;5184;51.376;7.148;2023-05-17T02:29:14;6.70;1.00
10278;DHT22;5184;51.376;7.148;2023-05-17T02:31:41;6.70;1.00
10278;DHT22;5184;51.376;7.148;2023-05-17T02:34:08;6.60;1.00
10278;DHT22;5184;51.376;7.148;2023-05-17T02:36:35;6.60;1.00
10278;DHT22;5184;51.376;7.148;2023-05-17T02:39:01;6.60;1.00
10278;DHT22;5184;51.376;7.148;2023-05-17T02:41:29;6.50;1.00
10278;DHT22;5184;51.376;7.148;2023-05-17T02:43:55;6.50;1.00
10278;DHT22;5184;51.376;7.148;2023-05-17T02:46:22;6.40;1.00
10278;DHT22;5184;51.376;7.148;2023-05-17T02:48:49;6.30;1.00
10278;DHT22;5184;51.376;7.148;2023-05-17T02:51:16;6.30;1.00
10278;DHT22;5184;51.376;7.148;2023-05-17T02:53:42;6.30;1.00
10278;DHT22;5184;51.376;7.148;2023-05-17T02:56:10;6.30;6.00
10278;DHT22;5184;51.376;7.148;2023-05-17T02:58:37;6.30;99.90
10278;DHT22;5184;51.376;7.148;2023-05-17T03:01:04;6.30;99.90
10278;DHT22;5184;51.376;7.148;2023-05-17T03:03:32;6.30;99.90
10278;DHT22;5184;51.376;7.148;2023-05-17T03:05:59;6.30;99.90
10278;DHT22;5184;51.376;7.148;2023-05-17T03:08:27;6.40;99.90
10278;DHT22;5184;51.376;7.148;2023-05-17T03:10:55;6.40;99.90
10278;DHT22;5184;51.376;7.148;2023-05-17T03:13:22;6.40;99.90
10278;DHT22;5184;51.376;7.148;2023-05-17T03:15:48;6.40;99.90
10278;DHT22;5184;51.376;7.148;2023-05-17T03:18:15;6.30;99.90
10278;DHT22;5184;51.376;7.148;2023-05-17T03:20:42;6.40;99.90
10278;DHT22;5184;51.376;7.148;2023-05-17T03:23:08;6.40;99.90
10278;DHT22;5184;51.376;7.148;2023-05-17T03:25:35;6.40;1.00
10278;DHT22;5184;51.376;7.148;2023-05-17T03:28:01;6.40;1.00
10278;DHT22;5184;51.376;7.148;2023-05-17T03:30:28;6.30;1.00
10278;DHT22;5184;51.376;7.148;2023-05-17T03:32:55;6.30;1.00
10278;DHT22;5184;51.376;7.148;2023-05-17T03:35:21;6.40;1.00
10278;DHT22;5184;51.376;7.148;2023-05-17T03:37:49;6.50;1.00
10278;DHT22;5184;51.376;7.148;2023-05-17T03:40:15;6.40;1.00
10278;DHT22;5184;51.376;7.148;2023-05-17T03:42:42;6.50;1.00
10278;DHT22;5184;51.376;7.148;2023-05-17T03:45:09;6.50;1.00
10278;DHT22;5184;51.376;7.148;2023-05-17T03:47:37;6.60;1.00
10278;DHT22;5184;51.376;7.148;2023-05-17T03:50:05;6.60;1.00
10278;DHT22;5184;51.376;7.148;2023-05-17T03:52:31;6.60;1.00
10278;DHT22;5184;51.376;7.148;2023-05-17T03:54:58;6.60;1.00
10278;DHT22;5184;51.376;7.148;2023-05-17T03:57:25;6.70;1.00
10278;DHT22;5184;51.376;7.148;2023-05-17T03:59:53;6.70;1.00
10278;DHT22;5184;51.376;7.148;2023-05-17T04:02:20;6.70;1.00
10278;DHT22;5184;51.376;7.148;2023-05-17T04:04:48;6.70;1.00
10278;DHT22;5184;51.376;7.148;2023-05-17T04:07:15;6.70;1.00
10278;DHT22;5184;51.376;7.148;2023-05-17T04:09:42;6.80;1.00
10278;DHT22;5184;51.376;7.148;2023-05-17T04:12:10;6.90;45.50
10278;DHT22;5184;51.376;7.148;2023-05-17T04:14:37;6.90;70.40
10278;DHT22;5184;51.376;7.148;2023-05-17T04:17:04;7.50;44.30
10278;DHT22;5184;51.376;7.148;2023-05-17T04:19:32;7.10;51.30
10278;DHT22;5184;51.376;7.148;2023-05-17T04:21:59;7.20;69.10
10278;DHT22;5184;51.376;7.148;2023-05-17T04:24:26;7.20;99.90
10278;DHT22;5184;51.376;7.148;2023-05-17T04:26:54;7.30;99.90
10278;DHT22;5184;51.376;7.148;2023-05-17T04:29:21;7.40;99.90
10278;DHT22;5184;51.376;7.148;2023-05-17T04:31:48;7.40;99.90
10278;DHT22;5184;51.376;7.148;2023-05-17T04:34:14;7.50;99.90
10278;DHT22;5184;51.376;7.148;2023-05-17T04:36:41;7.60;99.90
10278;DHT22;5184;51.376;7.148;2023-05-17T04:39:08;7.80;99.90
10278;DHT22;5184;51.376;7.148;2023-05-17T04:41:36;7.80;99.90
10278;DHT22;5184;51.376;7.148;2023-05-17T04:44:04;7.90;99.90
10278;DHT22;5184;51.376;7.148;2023-05-17T04:46:30;7.90;99.90
10278;DHT22;5184;51.376;7.148;2023-05-17T04:48:57;7.90;99.90
10278;DHT22;5184;51.376;7.148;2023-05-17T04:51:24;7.90;99.90
10278;DHT22;5184;51.376;7.148;2023-05-17T04:53:52;7.90;99.90
10278;DHT22;5184;51.376;7.148;2023-05-17T04:56:18;7.80;99.90
10278;DHT22;5184;51.376;7.148;2023-05-17T04:58:45;7.80;99.90
10278;DHT22;5184;51.376;7.148;2023-05-17T05:01:12;7.80;99.90
10278;DHT22;5184;51.376;7.148;2023-05-17T05:03:38;8.00;99.90
10278;DHT22;5184;51.376;7.148;2023-05-17T05:06:05;8.10;99.90
10278;DHT22;5184;51.376;7.148;2023-05-17T05:08:31;8.20;99.90
10278;DHT22;5184;51.376;7.148;2023-05-17T05:10:58;8.30;99.90
10278;DHT22;5184;51.376;7.148;2023-05-17T05:13:25;8.20;99.90
10278;DHT22;5184;51.376;7.148;2023-05-17T05:15:52;8.30;99.90
10278;DHT22;5184;51.376;7.148;2023-05-17T05:18:19;8.40;99.90
10278;DHT22;5184;51.376;7.148;2023-05-17T05:20:47;8.50;99.90
10278;DHT22;5184;51.376;7.148;2023-05-17T05:23:13;8.50;99.90
10278;DHT22;5184;51.376;7.148;2023-05-17T05:25:41;8.50;99.90
10278;DHT22;5184;51.376;7.148;2023-05-17T05:28:06;8.50;99.90
10278;DHT22;5184;51.376;7.148;2023-05-17T05:30:34;8.50;99.90
10278;DHT22;5184;51.376;7.148;2023-05-17T05:33:01;8.50;99.90
10278;DHT22;5184;51.376;7.148;2023-05-17T05:35:28;8.60;99.90
10278;DHT22;5184;51.376;7.148;2023-05-17T05:37:56;8.60;99.90
10278;DHT22;5184;51.376;7.148;2023-05-17T05:40:23;8.80;99.90
10278;DHT22;5184;51.376;7.148;2023-05-17T05:42:50;8.70;99.90
10278;DHT22;5184;51.376;7.148;2023-05-17T05:45:17;8.90;99.90
10278;DHT22;5184;51.376;7.148;2023-05-17T05:47:43;9.00;63.20
10278;DHT22;5184;51.376;7.148;2023-05-17T05:50:11;9.00;1.00
10278;DHT22;5184;51.376;7.148;2023-05-17T05:52:37;9.00;40.10
10278;DHT22;5184;51.376;7.148;2023-05-17T05:55:04;9.00;99.90
10278;DHT22;5184;51.376;7.148;2023-05-17T05:57:31;9.00;99.90
10278;DHT22;5184;51.376;7.148;2023-05-17T05:59:57;9.00;1.00
10278;DHT22;5184;51.376;7.148;2023-05-17T06:02:24;9.10;1.00
10278;DHT22;5184;51.376;7.148;2023-05-17T06:04:50;9.10;1.00
10278;DHT22;5184;51.376;7.148;2023-05-17T06:07:17;9.20;99.90
10278;DHT22;5184;51.376;7.148;2023-05-17T06:09:44;9.20;64.20
10278;DHT22;5184;51.376;7.148;2023-05-17T06:12:10;9.30;1.00
10278;DHT22;5184;51.376;7.148;2023-05-17T06:14:37;9.40;1.00
10278;DHT22;5184;51.376;7.148;2023-05-17T06:17:04;9.40;1.00
10278;DHT22;5184;51.376;7.148;2023-05-17T06:19:31;9.40;1.00
10278;DHT22;5184;51.376;7.148;2023-05-17T06:21:59;9.40;99.90
10278;DHT22;5184;51.376;7.148;2023-05-17T06:24:26;9.40;99.90
10278;DHT22;5184;51.376;7.148;2023-05-17T06:26:53;9.30;1.00
10278;DHT22;5184;51.376;7.148;2023-05-17T06:29:21;9.30;1.00
10278;DHT22;5184;51.376;7.148;2023-05-17T06:31:48;9.40;1.00
10278;DHT22;5184;51.376;7.148;2023-05-17T06:34:16;9.50;99.90
10278;DHT22;5184;51.376;7.148;2023-05-17T06:36:43;9.60;99.90
10278;DHT22;5184;51.376;7.148;2023-05-17T06:39:09;9.60;99.90
10278;DHT22;5184;51.376;7.148;2023-05-17T06:41:36;9.70;99.90
10278;DHT22;5184;51.376;7.148;2023-05-17T06:44:03;9.90;1.00
10278;DHT22;5184;51.376;7.148;2023-05-17T06:46:29;9.90;99.90
10278;DHT22;5184;51.376;7.148;2023-05-17T06:48:56;9.90;99.90
10278;DHT22;5184;51.376;7.148;2023-05-17T06:51:22;9.80;99.90
10278;DHT22;5184;51.376;7.148;2023-05-17T06:53:49;9.80;1.00
10278;DHT22;5184;51.376;7.148;2023-05-17T06:56:16;9.80;1.00
10278;DHT22;5184;51.376;7.148;2023-05-17T06:58:44;9.90;99.90
10278;DHT22;5184;51.376;7.148;2023-05-17T07:01:11;9.90;99.90
10278;DHT22;5184;51.376;7.148;2023-05-17T07:03:38;9.90;99.90
10278;DHT22;5184;51.376;7.148;2023-05-17T07:06:04;10.00;5.20
10278;DHT22;5184;51.376;7.148;2023-05-17T07:08:31;10.00;99.90
10278;DHT22;5184;51.376;7.148;2023-05-17T07:10:58;10.00;1.00
10278;DHT22;5184;51.376;7.148;2023-05-17T07:13:26;10.00;1.00
10278;DHT22;5184;51.376;7.148;2023-05-17T07:15:53;10.00;1.00
10278;DHT22;5184;51.376;7.148;2023-05-17T07:18:20;10.00;1.00
10278;DHT22;5184;51.376;7.148;2023-05-17T07:20:46;10.00;1.00
10278;DHT22;5184;51.376;7.148;2023-05-17T07:23:13;10.00;1.00
10278;DHT22;5184;51.376;7.148;2023-05-17T07:25:39;10.10;1.00
10278;DHT22;5184;51.376;7.148;2023-05-17T07:28:06;10.20;1.00
10278;DHT22;5184;51.376;7.148;2023-05-17T07:30:33;10.20;1.00
10278;DHT22;5184;51.376;7.148;2023-05-17T07:33:01;10.20;1.00
10278;DHT22;5184;51.376;7.148;2023-05-17T07:35:28;10.10;1.00
10278;DHT22;5184;51.376;7.148;2023-05-17T07:37:55;10.10;1.00
10278;DHT22;5184;51.376;7.148;2023-05-17T07:40:23;10.00;5.00
10278;DHT22;5184;51.376;7.148;2023-05-17T07:42:49;10.00;1.00
10278;DHT22;5184;51.376;7.148;2023-05-17T07:45:16;10.00;1.00
10278;DHT22;5184;51.376;7.148;2023-05-17T07:47:43;9.90;1.00
10278;DHT22;5184;51.376;7.148;2023-05-17T07:50:10;9.90;1.00
10278;DHT22;5184;51.376;7.148;2023-05-17T07:52:37;9.80;1.00
10278;DHT22;5184;51.376;7.148;2023-05-17T07:55:04;9.80;99.90
10278;DHT22;5184;51.376;7.148;2023-05-17T07:57:31;9.80;99.90
10278;DHT22;5184;51.376;7.148;2023-05-17T07:59:58;9.80;99.90
10278;DHT22;5184;51.376;7.148;2023-05-17T08:02:24;9.90;99.90
10278;DHT22;5184;51.376;7.148;2023-05-17T08:04:51;9.90;99.90
10278;DHT22;5184;51.376;7.148;2023-05-17T08:07:18;10.00;99.90
10278;DHT22;5184;51.376;7.148;2023-05-17T08:09:45;10.00;1.00
10278;DHT22;5184;51.376;7.148;2023-05-17T08:12:13;10.10;23.10
10278;DHT22;5184;51.376;7.148;2023-05-17T08:14:39;10.10;15.00
10278;DHT22;5184;51.376;7.148;2023-05-17T08:17:06;10.20;1.00
10278;DHT22;5184;51.376;7.148;2023-05-17T08:19:33;10.30;1.00
10278;DHT22;5184;51.376;7.148;2023-05-17T08:21:59;10.40;1.00
10278;DHT22;5184;51.376;7.148;2023-05-17T08:24:26;10.60;1.00
10278;DHT22;5184;51.376;7.148;2023-05-17T08:26:53;11.10;99.90
10278;DHT22;5184;51.376;7.148;2023-05-17T08:29:21;11.30;55.30
10278;DHT22;5184;51.376;7.148;2023-05-17T08:31:48;11.50;1.00
10278;DHT22;5184;51.376;7.148;2023-05-17T08:34:15;11.90;1.00
10278;DHT22;5184;51.376;7.148;2023-05-17T08:36:42;11.80;1.00
10278;DHT22;5184;51.376;7.148;2023-05-17T08:39:09;12.10;99.90
10278;DHT22;5184;51.376;7.148;2023-05-17T08:41:36;12.10;99.90
10278;DHT22;5184;51.376;7.148;2023-05-17T08:44:03;12.30;99.90
10278;DHT22;5184;51.376;7.148;2023-05-17T08:46:31;12.50;99.90
10278;DHT22;5184;51.376;7.148;2023-05-17T08:48:58;12.50;99.90
10278;DHT22;5184;51.376;7.148;2023-05-17T08:51:25;12.50;99.90
10278;DHT22;5184;51.376;7.148;2023-05-17T08:53:52;12.40;99.90
10278;DHT22;5184;51.376;7.148;2023-05-17T08:56:19;12.20;99.90
10278;DHT22;5184;51.376;7.148;2023-05-17T08:58:45;12.00;99.90
10278;DHT22;5184;51.376;7.148;2023-05-17T09:01:11;12.00;99.90
10278;DHT22;5184;51.376;7.148;2023-05-17T09:03:40;12.60;99.90
10278;DHT22;5184;51.376;7.148;2023-05-17T09:06:06;12.70;99.90
10278;DHT22;5184;51.376;7.148;2023-05-17T09:08:33;12.70;99.90
10278;DHT22;5184;51.376;7.148;2023-05-17T09:11:00;12.70;99.90
10278;DHT22;5184;51.376;7.148;2023-05-17T09:13:26;12.90;99.90
10278;DHT22;5184;51.376;7.148;2023-05-17T09:15:53;13.00;99.90
10278;DHT22;5184;51.376;7.148;2023-05-17T09:18:28;13.20;1.00
10278;DHT22;5184;51.376;7.148;2023-05-17T09:20:49;13.10;1.00
10278;DHT22;5184;51.376;7.148;2023-05-17T09:23:17;13.30;1.00
10278;DHT22;5184;51.376;7.148;2023-05-17T09:25:47;13.30;1.00
10278;DHT22;5184;51.376;7.148;2023-05-17T09:28:14;13.20;1.00
10278;DHT22;5184;51.376;7.148;2023-05-17T09:30:40;13.20;1.00
10278;DHT22;5184;51.376;7.148;2023-05-17T09:33:08;13.00;1.00
10278;DHT22;5184;51.376;7.148;2023-05-17T09:35:34;12.90;1.00
10278;DHT22;5184;51.376;7.148;2023-05-17T09:38:08;12.80;64.30
10278;DHT22;5184;51.376;7.148;2023-05-17T09:40:39;12.80;61.80
10278;DHT22;5184;51.376;7.148;2023-05-17T09:43:05;12.80;30.00
10278;DHT22;5184;51.376;7.148;2023-05-17T09:45:33;12.50;99.90
10278;DHT22;5184;51.376;7.148;2023-05-17T09:48:11;12.50;99.90
10278;DHT22;5184;51.376;7.148;2023-05-17T09:50:41;12.50;99.90
10278;DHT22;5184;51.376;7.148;2023-05-17T09:53:03;12.40;99.90
10278;DHT22;5184;51.376;7.148;2023-05-17T09:55:30;12.50;99.90
10278;DHT22;5184;51.376;7.148;2023-05-17T09:58:01;12.70;3.40
10278;DHT22;5184;51.376;7.148;2023-05-17T10:00:24;13.00;1.00
10278;DHT22;5184;51.376;7.148;2023-05-17T10:02:51;12.80;1.00
10278;DHT22;5184;51.376;7.148;2023-05-17T10:05:19;12.90;1.00
10278;DHT22;5184;51.376;7.148;2023-05-17T10:07:46;12.80;1.00
10278;DHT22;5184;51.376;7.148;2023-05-17T10:10:13;12.80;1.00
10278;DHT22;5184;51.376;7.148;2023-05-17T10:12:41;12.90;99.90
10278;DHT22;5184;51.376;7.148;2023-05-17T10:15:07;12.90;99.90
10278;DHT22;5184;51.376;7.148;2023-05-17T10:17:34;13.10;1.00
10278;DHT22;5184;51.376;7.148;2023-05-17T10:20:02;13.10;1.00
10278;DHT22;5184;51.376;7.148;2023-05-17T10:22:28;13.10;1.00
10278;DHT22;5184;51.376;7.148;2023-05-17T10:24:55;13.20;99.90
10278;DHT22;5184;51.376;7.148;2023-05-17T10:27:22;13.30;1.00
10278;DHT22;5184;51.376;7.148;2023-05-17T10:29:48;13.40;99.90
10278;DHT22;5184;51.376;7.148;2023-05-17T10:32:14;13.50;99.90
10278;DHT22;5184;51.376;7.148;2023-05-17T10:34:42;13.20;99.90
10278;DHT22;5184;51.376;7.148;2023-05-17T10:37:09;13.20;99.90
10278;DHT22;5184;51.376;7.148;2023-05-17T10:39:36;13.10;99.90
10278;DHT22;5184;51.376;7.148;2023-05-17T10:42:04;13.10;99.90
10278;DHT22;5184;51.376;7.148;2023-05-17T10:44:31;13.00;1.00
10278;DHT22;5184;51.376;7.148;2023-05-17T10:46:58;13.20;99.90
10278;DHT22;5184;51.376;7.148;2023-05-17T10:49:25;13.40;1.00
10278;DHT22;5184;51.376;7.148;2023-05-17T10:51:53;13.60;99.90
10278;DHT22;5184;51.376;7.148;2023-05-17T10:54:20;13.70;99.90
10278;DHT22;5184;51.376;7.148;2023-05-17T10:56:49;13.60;99.90
10278;DHT22;5184;51.376;7.148;2023-05-17T10:59:31;13.50;99.90
10278;DHT22;5184;51.376;7.148;2023-05-17T11:02:04;13.70;99.90
10278;DHT22;5184;51.376;7.148;2023-05-17T11:04:32;13.50;99.90
10278;DHT22;5184;51.376;7.148;2023-05-17T11:09:37;13.40;99.90
10278;DHT22;5184;51.376;7.148;2023-05-17T11:12:05;13.30;99.90
10278;DHT22;5184;51.376;7.148;2023-05-17T11:14:42;13.40;99.90
10278;DHT22;5184;51.376;7.148;2023-05-17T11:17:14;13.50;99.90
10278;DHT22;5184;51.376;7.148;2023-05-17T11:20:07;13.70;99.90
10278;DHT22;5184;51.376;7.148;2023-05-17T11:22:37;14.00;99.90
10278;DHT22;5184;51.376;7.148;2023-05-17T11:25:04;14.30;99.90
10278;DHT22;5184;51.376;7.148;2023-05-17T11:27:28;14.20;99.90
10278;DHT22;5184;51.376;7.148;2023-05-17T11:29:56;14.20;99.90
10278;DHT22;5184;51.376;7.148;2023-05-17T11:32:27;14.10;99.90
10278;DHT22;5184;51.376;7.148;2023-05-17T11:34:53;14.10;99.90
10278;DHT22;5184;51.376;7.148;2023-05-17T11:37:25;13.90;99.90
10278;DHT22;5184;51.376;7.148;2023-05-17T11:40:04;13.90;99.90
10278;DHT22;5184;51.376;7.148;2023-05-17T11:42:29;14.00;99.90
10278;DHT22;5184;51.376;7.148;2023-05-17T11:44:57;14.20;99.90
10278;DHT22;5184;51.376;7.148;2023-05-17T11:47:24;14.10;99.90
10278;DHT22;5184;51.376;7.148;2023-05-17T11:49:52;14.00;99.90
10278;DHT22;5184;51.376;7.148;2023-05-17T11:52:18;13.90;99.90
10278;DHT22;5184;51.376;7.148;2023-05-17T11:54:45;14.00;99.90
10278;DHT22;5184;51.376;7.148;2023-05-17T11:57:11;14.00;99.90
10278;DHT22;5184;51.376;7.148;2023-05-17T11:59:38;14.10;99.90
10278;DHT22;5184;51.376;7.148;2023-05-17T12:02:04;14.20;99.90
10278;DHT22;5184;51.376;7.148;2023-05-17T12:04:33;13.80;99.90
10278;DHT22;5184;51.376;7.148;2023-05-17T12:06:59;13.90;99.90
10278;DHT22;5184;51.376;7.148;2023-05-17T12:09:26;14.00;99.90
10278;DHT22;5184;51.376;7.148;2023-05-17T12:11:53;14.00;99.90
10278;DHT22;5184;51.376;7.148;2023-05-17T12:14:20;14.10;99.90
10278;DHT22;5184;51.376;7.148;2023-05-17T12:16:49;14.20;99.90
10278;DHT22;5184;51.376;7.148;2023-05-17T12:19:18;14.30;99.90
10278;DHT22;5184;51.376;7.148;2023-05-17T12:21:44;14.20;99.90
10278;DHT22;5184;51.376;7.148;2023-05-17T12:24:11;14.30;94.50
10278;DHT22;5184;51.376;7.148;2023-05-17T12:26:45;14.40;34.80
10278;DHT22;5184;51.376;7.148;2023-05-17T12:29:12;14.30;11.70
10278;DHT22;5184;51.376;7.148;2023-05-17T12:31:40;14.30;12.00
10278;DHT22;5184;51.376;7.148;2023-05-17T12:34:06;14.20;36.10
10278;DHT22;5184;51.376;7.148;2023-05-17T12:36:32;14.40;1.00
10278;DHT22;5184;51.376;7.148;2023-05-17T12:38:59;14.50;1.00
10278;DHT22;5184;51.376;7.148;2023-05-17T12:41:26;14.60;1.00
10278;DHT22;5184;51.376;7.148;2023-05-17T12:43:52;14.60;7.00
10278;DHT22;5184;51.376;7.148;2023-05-17T12:46:20;14.70;40.90
10278;DHT22;5184;51.376;7.148;2023-05-17T12:48:47;14.70;14.30
10278;DHT22;5184;51.376;7.148;2023-05-17T12:51:15;15.00;8.70
10278;DHT22;5184;51.376;7.148;2023-05-17T12:53:49;15.10;21.70
10278;DHT22;5184;51.376;7.148;2023-05-17T12:56:18;15.10;19.00
10278;DHT22;5184;51.376;7.148;2023-05-17T12:58:44;15.40;17.70
10278;DHT22;5184;51.376;7.148;2023-05-17T13:01:11;15.60;1.00
10278;DHT22;5184;51.376;7.148;2023-05-17T13:03:39;15.60;1.00
10278;DHT22;5184;51.376;7.148;2023-05-17T13:06:05;15.40;1.00
10278;DHT22;5184;51.376;7.148;2023-05-17T13:08:32;15.20;1.00
10278;DHT22;5184;51.376;7.148;2023-05-17T13:11:05;15.20;1.00
10278;DHT22;5184;51.376;7.148;2023-05-17T13:13:31;15.40;1.00
10278;DHT22;5184;51.376;7.148;2023-05-17T13:15:58;15.50;1.00
10278;DHT22;5184;51.376;7.148;2023-05-17T13:18:26;15.70;1.00
10278;DHT22;5184;51.376;7.148;2023-05-17T13:20:53;15.90;1.00
10278;DHT22;5184;51.376;7.148;2023-05-17T13:23:21;15.80;1.00
10278;DHT22;5184;51.376;7.148;2023-05-17T13:25:47;15.80;1.00
10278;DHT22;5184;51.376;7.148;2023-05-17T13:28:14;15.70;1.00
10278;DHT22;5184;51.376;7.148;2023-05-17T13:30:40;15.60;1.00
10278;DHT22;5184;51.376;7.148;2023-05-17T13:33:07;15.60;1.00
10278;DHT22;5184;51.376;7.148;2023-05-17T13:35:33;15.80;1.00
10278;DHT22;5184;51.376;7.148;2023-05-17T13:38:00;16.00;1.00
10278;DHT22;5184;51.376;7.148;2023-05-17T13:40:27;16.30;1.00
10278;DHT22;5184;51.376;7.148;2023-05-17T13:42:53;16.40;1.00
10278;DHT22;5184;51.376;7.148;2023-05-17T13:45:20;16.30;1.00
10278;DHT22;5184;51.376;7.148;2023-05-17T13:47:46;16.10;1.00
10278;DHT22;5184;51.376;7.148;2023-05-17T13:50:14;15.90;1.00
10278;DHT22;5184;51.376;7.148;2023-05-17T13:52:41;15.80;1.00
10278;DHT22;5184;51.376;7.148;2023-05-17T13:55:09;16.20;1.00
10278;DHT22;5184;51.376;7.148;2023-05-17T13:57:35;16.10;1.00
10278;DHT22;5184;51.376;7.148;2023-05-17T14:00:03;16.40;1.00
10278;DHT22;5184;51.376;7.148;2023-05-17T14:02:29;16.40;1.00
10278;DHT22;5184;51.376;7.148;2023-05-17T14:04:56;16.60;1.00
10278;DHT22;5184;51.376;7.148;2023-05-17T14:07:23;17.00;1.00
10278;DHT22;5184;51.376;7.148;2023-05-17T14:09:49;16.80;1.00
10278;DHT22;5184;51.376;7.148;2023-05-17T14:12:16;16.50;1.00
10278;DHT22;5184;51.376;7.148;2023-05-17T14:14:42;16.10;1.00
10278;DHT22;5184;51.376;7.148;2023-05-17T14:17:09;16.20;1.00
10278;DHT22;5184;51.376;7.148;2023-05-17T14:19:36;16.60;1.00
10278;DHT22;5184;51.376;7.148;2023-05-17T14:22:04;16.80;1.00
10278;DHT22;5184;51.376;7.148;2023-05-17T14:24:31;16.90;1.00
10278;DHT22;5184;51.376;7.148;2023-05-17T14:26:58;17.00;1.00
10278;DHT22;5184;51.376;7.148;2023-05-17T14:29:26;17.00;1.00
10278;DHT22;5184;51.376;7.148;2023-05-17T14:31:53;17.20;1.00
10278;DHT22;5184;51.376;7.148;2023-05-17T14:34:20;17.20;1.00
10278;DHT22;5184;51.376;7.148;2023-05-17T14:36:48;17.50;1.00
10278;DHT22;5184;51.376;7.148;2023-05-17T14:39:15;17.80;1.00
10278;DHT22;5184;51.376;7.148;2023-05-17T14:41:42;17.80;1.00
10278;DHT22;5184;51.376;7.148;2023-05-17T14:44:08;18.40;1.00
10278;DHT22;5184;51.376;7.148;2023-05-17T14:46:35;19.10;1.00
10278;DHT22;5184;51.376;7.148;2023-05-17T14:49:02;19.50;1.00
10278;DHT22;5184;51.376;7.148;2023-05-17T14:51:28;19.20;1.00
10278;DHT22;5184;51.376;7.148;2023-05-17T14:53:55;19.40;1.00
10278;DHT22;5184;51.376;7.148;2023-05-17T14:56:21;19.70;1.00
10278;DHT22;5184;51.376;7.148;2023-05-17T14:58:49;19.70;1.00
10278;DHT22;5184;51.376;7.148;2023-05-17T15:01:16;19.70;1.00
10278;DHT22;5184;51.376;7.148;2023-05-17T15:03:43;19.70;1.00
10278;DHT22;5184;51.376;7.148;2023-05-17T15:06:11;19.70;1.00
10278;DHT22;5184;51.376;7.148;2023-05-17T15:08:38;19.50;1.00
10278;DHT22;5184;51.376;7.148;2023-05-17T15:11:05;19.60;1.00
10278;DHT22;5184;51.376;7.148;2023-05-17T15:13:33;19.50;1.00
10278;DHT22;5184;51.376;7.148;2023-05-17T15:16:01;19.10;1.00
10278;DHT22;5184;51.376;7.148;2023-05-17T15:18:27;19.00;1.00
10278;DHT22;5184;51.376;7.148;2023-05-17T15:20:53;18.40;1.00
10278;DHT22;5184;51.376;7.148;2023-05-17T15:23:20;18.50;1.00
10278;DHT22;5184;51.376;7.148;2023-05-17T15:25:47;18.90;1.00
10278;DHT22;5184;51.376;7.148;2023-05-17T15:28:13;19.30;1.00
10278;DHT22;5184;51.376;7.148;2023-05-17T15:30:40;19.20;1.00
10278;DHT22;5184;51.376;7.148;2023-05-17T15:33:06;19.30;1.00
10278;DHT22;5184;51.376;7.148;2023-05-17T15:35:34;18.50;1.00
10278;DHT22;5184;51.376;7.148;2023-05-17T15:38:02;18.30;1.00
10278;DHT22;5184;51.376;7.148;2023-05-17T15:40:28;18.60;1.00
10278;DHT22;5184;51.376;7.148;2023-05-17T15:42:56;18.80;1.00
10278;DHT22;5184;51.376;7.148;2023-05-17T15:45:23;19.00;1.00
10278;DHT22;5184;51.376;7.148;2023-05-17T15:47:50;19.00;1.00
10278;DHT22;5184;51.376;7.148;2023-05-17T15:50:18;19.00;1.00
10278;DHT22;5184;51.376;7.148;2023-05-17T15:52:45;19.00;1.00
10278;DHT22;5184;51.376;7.148;2023-05-17T15:55:12;19.00;1.00
10278;DHT22;5184;51.376;7.148;2023-05-17T15:57:38;19.20;1.00
10278;DHT22;5184;51.376;7.148;2023-05-17T16:00:06;19.40;1.00
10278;DHT22;5184;51.376;7.148;2023-05-17T16:02:32;19.20;1.00
10278;DHT22;5184;51.376;7.148;2023-05-17T16:04:59;19.50;1.00
10278;DHT22;5184;51.376;7.148;2023-05-17T16:07:25;19.50;1.00